SBOSBO ABV / DNAA
Speedbird OnlineSpeedbird Online ABV / DNAA

Nnamdi Azikiwe International Airport
07:53 23°C

Location Abuja, Nigeria
Latitude: 9.006790161132812
Longitude: 7.263169765472412
Web Airport Website | Wikipedia
Altitude 342 Meter / 1123 Feet
Distance 4,770 KM / 2,964 Miles
from London.
Time Zone UTC +1 hours (Africa/Lagos)
Codes IATA: ABV
ICAO: DNAA
Currency £1 equals NGN 469.24
Runways
RunwayLength (m)Surface
043609Asphalt
223609Asphalt
Radio
TypeDescriptionFrequency
APPAPP127.9
ATISATIS127.05
GND121.9
TWRTWR118.6
Live ATC
METAR DNAA 060600Z 03004KT 9999 TS BKN007 FEW018CB 23/22 Q1014 NOSIG
TAF TAF DNAA 060500Z 0606/0712 35004KT 8000 -TSRA BKN007 FEW018CB BECMG 0608/0611 22008KT NSW SCT010 TEMPO 0612/0619 TS FEW020CB PROB30 0613/0617 05018G32KT 5000 TSRA BKN008 FEW018CB BECMG 0619/0621 16005KT BECMG 0709/0711 24010KT BKN011
Weather As Of 06 Oct 2022 07:53
Description Thunderstorm
Wind 7 km/h from North-East (30°)
Cloud Cover 75%
Precipitation Rain: none, Snow: none
Sunrise 06:18
Sunset 18:19
Lounges SDS Executive Lounge, International Terminal
FAAN Executive VIP Lounge, International Terminal
Rotations During the last 90 days there were
62 flights from LHR
57 flights to LHR


© 2017-2022 Speedbird Online